createdAt,value
2017-05-28T00:00:01.936Z,14.55
2017-05-28T00:00:06.134Z,14.56
2017-05-28T00:00:10.339Z,14.55
2017-05-28T00:00:14.536Z,14.57
2017-05-28T00:00:18.494Z,14.57
2017-05-28T00:00:22.917Z,14.57
2017-05-28T00:00:26.989Z,14.58
2017-05-28T00:00:31.299Z,14.58
2017-05-28T00:00:35.726Z,14.58
2017-05-28T00:00:39.923Z,14.58
2017-05-28T00:00:44.349Z,14.59
2017-05-28T00:00:48.663Z,14.59
2017-05-28T00:00:53.091Z,14.59
2017-05-28T00:00:57.282Z,14.6
2017-05-28T00:01:01.590Z,14.6
2017-05-28T00:01:05.984Z,14.61
2017-05-28T00:01:10.301Z,14.61
2017-05-28T00:01:14.618Z,14.62
2017-05-28T00:01:18.818Z,14.61
2017-05-28T00:01:23.125Z,14.62
2017-05-28T00:01:27.435Z,14.62
2017-05-28T00:01:31.867Z,14.63
2017-05-28T00:01:36.302Z,14.63
2017-05-28T00:01:40.611Z,14.63
2017-05-28T00:01:44.920Z,14.64
2017-05-28T00:01:49.119Z,14.64
2017-05-28T00:01:53.546Z,14.65
2017-05-28T00:01:57.741Z,14.65
2017-05-28T00:02:02.060Z,14.66
2017-05-28T00:02:06.575Z,14.66
2017-05-28T00:02:10.764Z,14.66
2017-05-28T00:02:14.958Z,14.67
2017-05-28T00:02:19.164Z,14.67
2017-05-28T00:02:23.593Z,14.67
2017-05-28T00:02:28.028Z,14.68
2017-05-28T00:02:32.489Z,14.69
2017-05-28T00:02:36.921Z,14.69
2017-05-28T00:02:41.235Z,14.69
2017-05-28T00:02:45.666Z,14.7
2017-05-28T00:02:49.862Z,14.7
2017-05-28T00:02:54.179Z,14.71
2017-05-28T00:02:58.504Z,14.72
2017-05-28T00:03:02.930Z,14.72
2017-05-28T00:03:07.237Z,14.73
2017-05-28T00:03:11.430Z,14.73
2017-05-28T00:03:15.736Z,14.75
2017-05-28T00:03:19.926Z,14.74
2017-05-28T00:03:24.253Z,14.75
2017-05-28T00:03:28.695Z,14.76
2017-05-28T00:03:33.010Z,14.76
2017-05-28T00:03:37.442Z,14.77
2017-05-28T00:03:41.867Z,14.77
2017-05-28T00:03:46.071Z,14.78
2017-05-28T00:03:50.499Z,14.78
2017-05-28T00:03:54.819Z,14.79
2017-05-28T00:03:59.078Z,14.79
2017-05-28T00:04:03.694Z,14.81
2017-05-28T00:04:08.125Z,14.8
2017-05-28T00:04:12.430Z,14.81
2017-05-28T00:04:16.858Z,14.82
2017-05-28T00:04:21.048Z,14.82
2017-05-28T00:04:25.539Z,14.83
2017-05-28T00:04:29.854Z,14.83
2017-05-28T00:04:34.162Z,14.84
2017-05-28T00:04:38.234Z,14.84
2017-05-28T00:04:42.544Z,14.85
2017-05-28T00:04:46.978Z,14.86
2017-05-28T00:04:51.412Z,14.86
2017-05-28T00:04:55.916Z,14.86
2017-05-28T00:05:00.369Z,14.86
2017-05-28T00:05:04.874Z,14.87
2017-05-28T00:05:09.060Z,14.88
2017-05-28T00:05:13.364Z,14.88
2017-05-28T00:05:17.673Z,14.89
2017-05-28T00:05:22.105Z,14.89
2017-05-28T00:05:26.425Z,14.9
2017-05-28T00:05:30.847Z,14.91
2017-05-28T00:05:35.274Z,14.9
2017-05-28T00:05:39.344Z,14.91
2017-05-28T00:05:43.530Z,14.92
2017-05-28T00:05:47.957Z,14.91
2017-05-28T00:05:52.406Z,14.93
2017-05-28T00:05:56.848Z,14.93
2017-05-28T00:06:01.272Z,14.94
2017-05-28T00:06:05.582Z,14.94
2017-05-28T00:06:09.419Z,14.94
2017-05-28T00:06:13.611Z,14.94
2017-05-28T00:06:17.809Z,14.93
2017-05-28T00:06:21.892Z,14.95
2017-05-28T00:06:26.238Z,14.96
2017-05-28T00:06:30.659Z,14.95
2017-05-28T00:06:35.090Z,14.96
2017-05-28T00:06:39.279Z,14.97
2017-05-28T00:06:43.588Z,14.97
2017-05-28T00:06:47.971Z,14.97
2017-05-28T00:06:52.412Z,14.98
2017-05-28T00:06:56.721Z,14.99
2017-05-28T00:07:01.033Z,14.99
2017-05-28T00:07:05.588Z,14.99
2017-05-28T00:07:09.666Z,14.99
2017-05-28T00:07:13.982Z,15
2017-05-28T00:07:18.451Z,15
2017-05-28T00:07:22.646Z,15
2017-05-28T00:07:26.835Z,15.01
2017-05-28T00:07:31.259Z,15.01
2017-05-28T00:07:35.579Z,15.01
2017-05-28T00:07:39.904Z,15.02
2017-05-28T00:07:44.345Z,15.02
2017-05-28T00:07:48.787Z,15.02
2017-05-28T00:07:53.100Z,15.03
2017-05-28T00:07:57.409Z,15.03
2017-05-28T00:08:01.841Z,15.04
2017-05-28T00:08:06.041Z,15.04
2017-05-28T00:08:10.234Z,15.03
2017-05-28T00:08:14.718Z,15.05
2017-05-28T00:08:18.799Z,15.05
2017-05-28T00:08:22.875Z,15.06
2017-05-28T00:08:27.314Z,15.06
2017-05-28T00:08:31.630Z,15.06
2017-05-28T00:08:36.365Z,15.06
2017-05-28T00:08:40.684Z,15.07
2017-05-28T00:08:44.997Z,15.06
2017-05-28T00:08:49.421Z,15.06
2017-05-28T00:08:53.730Z,15.07
2017-05-28T00:08:58.047Z,15.07
2017-05-28T00:09:02.719Z,15.08
2017-05-28T00:09:07.030Z,15.09
2017-05-28T00:09:11.231Z,15.1
2017-05-28T00:09:15.544Z,15.09
2017-05-28T00:09:19.979Z,15.1
2017-05-28T00:09:24.182Z,15.1
2017-05-28T00:09:28.614Z,15.11
2017-05-28T00:09:33.055Z,15.11
2017-05-28T00:09:37.489Z,15.11
2017-05-28T00:09:41.684Z,15.11
2017-05-28T00:09:45.991Z,15.11
2017-05-28T00:09:50.418Z,15.11
2017-05-28T00:09:54.725Z,15.12
2017-05-28T00:09:59.154Z,15.11
2017-05-28T00:10:03.469Z,15.12
2017-05-28T00:10:07.665Z,15.13
2017-05-28T00:10:11.748Z,15.12
2017-05-28T00:10:15.939Z,15.13
2017-05-28T00:10:20.131Z,15.13
2017-05-28T00:10:24.439Z,15.13
2017-05-28T00:10:28.629Z,15.13
2017-05-28T00:10:33.064Z,15.13
2017-05-28T00:10:37.518Z,15.14
2017-05-28T00:10:41.824Z,15.14
2017-05-28T00:10:46.248Z,15.13
2017-05-28T00:10:50.673Z,15.14
2017-05-28T00:10:55.104Z,15.14
2017-05-28T00:10:59.180Z,15.14
2017-05-28T00:11:03.964Z,15.14
2017-05-28T00:11:08.401Z,15.14
2017-05-28T00:11:12.705Z,15.15
2017-05-28T00:11:16.899Z,15.14
2017-05-28T00:11:21.205Z,15.15
2017-05-28T00:11:25.634Z,15.15
2017-05-28T00:11:29.946Z,15.15
2017-05-28T00:11:34.439Z,15.14
2017-05-28T00:11:38.749Z,15.15
2017-05-28T00:11:43.177Z,15.14
2017-05-28T00:11:47.618Z,15.15
2017-05-28T00:11:52.040Z,15.15
2017-05-28T00:11:56.348Z,15.15
2017-05-28T00:12:00.552Z,15.15
2017-05-28T00:12:05.034Z,15.15
2017-05-28T00:12:09.348Z,15.15
2017-05-28T00:12:13.775Z,15.16
2017-05-28T00:12:17.850Z,15.15
2017-05-28T00:12:21.921Z,15.15
2017-05-28T00:12:26.131Z,15.15
2017-05-28T00:12:30.448Z,15.15
2017-05-28T00:12:34.887Z,15.15
2017-05-28T00:12:39.202Z,15.16
2017-05-28T00:12:43.523Z,15.16
2017-05-28T00:12:47.956Z,15.15
2017-05-28T00:12:52.262Z,15.15
2017-05-28T00:12:56.696Z,15.15
2017-05-28T00:13:00.895Z,15.15
2017-05-28T00:13:05.396Z,15.15
2017-05-28T00:13:09.724Z,15.15
2017-05-28T00:13:14.025Z,15.15
2017-05-28T00:13:18.335Z,15.15
2017-05-28T00:13:22.758Z,15.15
2017-05-28T00:13:26.958Z,15.16
2017-05-28T00:13:31.397Z,15.15
2017-05-28T00:13:35.973Z,15.15
2017-05-28T00:13:40.293Z,15.14
2017-05-28T00:13:44.731Z,15.14
2017-05-28T00:13:49.166Z,15.14
2017-05-28T00:13:53.478Z,15.14
2017-05-28T00:13:57.677Z,15.13
2017-05-28T00:14:02.190Z,15.14
2017-05-28T00:14:06.505Z,15.14
2017-05-28T00:14:10.713Z,15.14
2017-05-28T00:14:15.022Z,15.14
2017-05-28T00:14:19.211Z,15.14
2017-05-28T00:14:23.645Z,15.14
2017-05-28T00:14:28.070Z,15.14
2017-05-28T00:14:32.272Z,15.14
2017-05-28T00:14:36.780Z,15.13
2017-05-28T00:14:41.208Z,15.13
2017-05-28T00:14:45.634Z,15.13
2017-05-28T00:14:50.065Z,15.13
2017-05-28T00:14:54.253Z,15.13
2017-05-28T00:14:58.689Z,15.13
2017-05-28T00:15:02.903Z,15.13
2017-05-28T00:15:07.334Z,15.12
2017-05-28T00:15:11.652Z,15.12
2017-05-28T00:15:15.841Z,15.12
2017-05-28T00:15:20.267Z,15.12
2017-05-28T00:15:24.597Z,15.12
2017-05-28T00:15:29.022Z,15.12
2017-05-28T00:15:33.098Z,15.13
2017-05-28T00:15:37.534Z,15.12
2017-05-28T00:15:41.961Z,15.12
2017-05-28T00:15:46.272Z,15.12
2017-05-28T00:15:50.695Z,15.11
2017-05-28T00:15:55.005Z,15.11
2017-05-28T00:15:59.432Z,15.11
2017-05-28T00:16:03.996Z,15.12
2017-05-28T00:16:08.318Z,15.11
2017-05-28T00:16:12.507Z,15.11
2017-05-28T00:16:16.816Z,15.1
2017-05-28T00:16:21.244Z,15.1
2017-05-28T00:16:25.565Z,15.09
2017-05-28T00:16:30.061Z,15.1
2017-05-28T00:16:34.255Z,15.1
2017-05-28T00:16:38.350Z,15.1
2017-05-28T00:16:42.719Z,15.1
2017-05-28T00:16:47.149Z,15.09
2017-05-28T00:16:51.575Z,15.09
2017-05-28T00:16:55.765Z,15.09
2017-05-28T00:17:00.198Z,15.08
2017-05-28T00:17:04.493Z,15.08
2017-05-28T00:17:08.807Z,15.08
2017-05-28T00:17:13.123Z,15.09
2017-05-28T00:17:17.268Z,15.08
2017-05-28T00:17:21.576Z,15.08
2017-05-28T00:17:25.765Z,15.07
2017-05-28T00:17:30.076Z,15.07
2017-05-28T00:17:34.502Z,15.08
2017-05-28T00:17:38.825Z,15.07
2017-05-28T00:17:43.146Z,15.06
2017-05-28T00:17:47.581Z,15.07
2017-05-28T00:17:52.002Z,15.07
2017-05-28T00:17:56.431Z,15.07
2017-05-28T00:18:00.857Z,15.07
2017-05-28T00:18:05.221Z,15.06
2017-05-28T00:18:09.540Z,15.05
2017-05-28T00:18:13.991Z,15.05
2017-05-28T00:18:18.195Z,15.05
2017-05-28T00:18:22.506Z,15.04
2017-05-28T00:18:26.933Z,15.04
2017-05-28T00:18:31.243Z,15.03
2017-05-28T00:18:35.448Z,15.04
2017-05-28T00:18:39.525Z,15.04
2017-05-28T00:18:43.734Z,15.02
2017-05-28T00:18:48.173Z,15.03
2017-05-28T00:18:52.605Z,15.03
2017-05-28T00:18:57.039Z,15.02
2017-05-28T00:19:01.347Z,15.01
2017-05-28T00:19:05.909Z,15.02
2017-05-28T00:19:10.119Z,15.01
2017-05-28T00:19:14.441Z,15.01
2017-05-28T00:19:18.519Z,15
2017-05-28T00:19:22.593Z,15
2017-05-28T00:19:26.911Z,15
2017-05-28T00:19:30.874Z,15
2017-05-28T00:19:35.185Z,14.99
2017-05-28T00:19:39.616Z,14.99
2017-05-28T00:19:43.996Z,14.98
2017-05-28T00:19:48.441Z,14.97
2017-05-28T00:19:52.752Z,14.98
2017-05-28T00:19:57.175Z,14.97
2017-05-28T00:20:01.488Z,14.97
2017-05-28T00:20:05.798Z,14.96
2017-05-28T00:20:10.112Z,14.96
2017-05-28T00:20:14.553Z,14.97
2017-05-28T00:20:18.739Z,14.96
2017-05-28T00:20:22.933Z,14.95
2017-05-28T00:20:27.126Z,14.95
2017-05-28T00:20:31.561Z,14.95
2017-05-28T00:20:35.994Z,14.94
2017-05-28T00:20:40.435Z,14.95
2017-05-28T00:20:44.873Z,14.94
2017-05-28T00:20:49.177Z,14.94
2017-05-28T00:20:53.604Z,14.93
2017-05-28T00:20:58.027Z,14.92
2017-05-28T00:21:02.703Z,14.92
2017-05-28T00:21:07.022Z,14.91
2017-05-28T00:21:11.334Z,14.91
2017-05-28T00:21:15.526Z,14.91
2017-05-28T00:21:19.846Z,14.9
2017-05-28T00:21:24.286Z,14.91
2017-05-28T00:21:28.711Z,14.89
2017-05-28T00:21:32.905Z,14.89
2017-05-28T00:21:37.233Z,14.89
2017-05-28T00:21:41.659Z,14.88
2017-05-28T00:21:46.086Z,14.88
2017-05-28T00:21:50.518Z,14.88
2017-05-28T00:21:54.948Z,14.87
2017-05-28T00:21:59.256Z,14.86
2017-05-28T00:22:03.685Z,14.85
2017-05-28T00:22:07.886Z,14.85
2017-05-28T00:22:12.078Z,14.86
2017-05-28T00:22:16.508Z,14.84
2017-05-28T00:22:20.938Z,14.84
2017-05-28T00:22:25.015Z,14.84
2017-05-28T00:22:29.440Z,14.84
2017-05-28T00:22:33.871Z,14.83
2017-05-28T00:22:38.293Z,14.82
2017-05-28T00:22:42.484Z,14.82
2017-05-28T00:22:46.910Z,14.82
2017-05-28T00:22:51.337Z,14.81
2017-05-28T00:22:55.766Z,14.81
2017-05-28T00:23:00.202Z,14.8
2017-05-28T00:23:04.526Z,14.8
2017-05-28T00:23:08.832Z,14.79
2017-05-28T00:23:13.259Z,14.79
2017-05-28T00:23:17.449Z,14.78
2017-05-28T00:23:21.753Z,14.78
2017-05-28T00:23:26.185Z,14.78
2017-05-28T00:23:30.672Z,14.77
2017-05-28T00:23:34.752Z,14.77
2017-05-28T00:23:38.944Z,14.76
2017-05-28T00:23:43.256Z,14.77
2017-05-28T00:23:47.696Z,14.76
2017-05-28T00:23:52.123Z,14.75
2017-05-28T00:23:56.320Z,14.74
2017-05-28T00:24:00.644Z,14.73
2017-05-28T00:24:05.071Z,14.74
2017-05-28T00:24:09.497Z,14.72
2017-05-28T00:24:13.803Z,14.72
2017-05-28T00:24:17.990Z,14.71
2017-05-28T00:24:22.304Z,14.71
2017-05-28T00:24:26.811Z,14.7
2017-05-28T00:24:31.241Z,14.7
2017-05-28T00:24:35.670Z,14.69
2017-05-28T00:24:39.977Z,14.69
2017-05-28T00:24:44.171Z,14.68
2017-05-28T00:24:48.607Z,14.67
2017-05-28T00:24:53.114Z,14.67
2017-05-28T00:24:57.313Z,14.67
2017-05-28T00:25:01.748Z,14.66
2017-05-28T00:25:06.055Z,14.66
2017-05-28T00:25:10.358Z,14.65
2017-05-28T00:25:14.430Z,14.65
2017-05-28T00:25:18.744Z,14.65
2017-05-28T00:25:23.053Z,14.64
2017-05-28T00:25:27.493Z,14.64
2017-05-28T00:25:31.918Z,14.63
2017-05-28T00:25:36.105Z,14.63
2017-05-28T00:25:40.295Z,14.62
2017-05-28T00:25:44.609Z,14.61
2017-05-28T00:25:49.042Z,14.61
2017-05-28T00:25:53.370Z,14.6
2017-05-28T00:25:57.679Z,14.6
2017-05-28T00:26:02.105Z,14.59
2017-05-28T00:26:06.416Z,14.59
2017-05-28T00:26:10.844Z,14.58
2017-05-28T00:26:15.156Z,14.58
2017-05-28T00:26:19.412Z,14.57
2017-05-28T00:26:23.860Z,14.56
2017-05-28T00:26:28.287Z,14.56
2017-05-28T00:26:32.600Z,14.56
2017-05-28T00:26:37.026Z,14.55
2017-05-28T00:26:41.336Z,14.53
2017-05-28T00:26:45.773Z,14.53
2017-05-28T00:26:50.214Z,14.53
2017-05-28T00:26:54.522Z,14.52
2017-05-28T00:26:58.950Z,14.52
2017-05-28T00:27:03.476Z,14.51
2017-05-28T00:27:07.908Z,14.5
2017-05-28T00:27:12.100Z,14.5
2017-05-28T00:27:16.411Z,14.5
2017-05-28T00:27:20.669Z,14.5
2017-05-28T00:27:25.096Z,14.48
2017-05-28T00:27:29.521Z,14.49
2017-05-28T00:27:33.827Z,14.48
2017-05-28T00:27:38.137Z,14.46
2017-05-28T00:27:42.449Z,14.46
2017-05-28T00:27:46.888Z,14.45
2017-05-28T00:27:51.276Z,14.45
2017-05-28T00:27:55.470Z,14.43
2017-05-28T00:27:59.781Z,14.44
2017-05-28T00:28:04.271Z,14.43
2017-05-28T00:28:08.344Z,14.41
2017-05-28T00:28:12.533Z,14.42
2017-05-28T00:28:16.728Z,14.4
2017-05-28T00:28:20.920Z,14.4
2017-05-28T00:28:25.237Z,14.39
2017-05-28T00:28:29.668Z,14.4
2017-05-28T00:28:33.977Z,14.39
2017-05-28T00:28:38.173Z,14.39
2017-05-28T00:28:42.253Z,14.38
2017-05-28T00:28:46.686Z,14.38
2017-05-28T00:28:51.111Z,14.37
2017-05-28T00:28:55.539Z,14.36
2017-05-28T00:28:59.845Z,14.36
2017-05-28T00:29:04.275Z,14.36
2017-05-28T00:29:08.229Z,14.36
2017-05-28T00:29:12.560Z,14.35
2017-05-28T00:29:16.755Z,14.34
2017-05-28T00:29:21.068Z,14.34
2017-05-28T00:29:25.509Z,14.33
2017-05-28T00:29:29.941Z,14.33
2017-05-28T00:29:34.371Z,14.32
2017-05-28T00:29:38.678Z,14.32
2017-05-28T00:29:42.878Z,14.32
2017-05-28T00:29:47.198Z,14.31
2017-05-28T00:29:51.630Z,14.3
2017-05-28T00:29:55.941Z,14.3
2017-05-28T00:30:00.254Z,14.3
2017-05-28T00:30:04.562Z,14.3
2017-05-28T00:30:08.394Z,14.29
2017-05-28T00:30:12.708Z,14.29
2017-05-28T00:30:16.911Z,14.28
2017-05-28T00:30:21.226Z,14.28
2017-05-28T00:30:25.433Z,14.27
2017-05-28T00:30:29.870Z,14.26
2017-05-28T00:30:34.295Z,14.27
2017-05-28T00:30:38.600Z,14.27
2017-05-28T00:30:42.682Z,14.26
2017-05-28T00:30:47.126Z,14.26
2017-05-28T00:30:51.551Z,14.25
2017-05-28T00:30:55.978Z,14.25
2017-05-28T00:31:00.405Z,14.24
2017-05-28T00:31:04.830Z,14.25
2017-05-28T00:31:08.902Z,14.24
2017-05-28T00:31:13.394Z,14.24
2017-05-28T00:31:17.601Z,14.24
2017-05-28T00:31:22.033Z,14.23
2017-05-28T00:31:26.335Z,14.23
2017-05-28T00:31:30.760Z,14.22
2017-05-28T00:31:35.185Z,14.22
2017-05-28T00:31:39.626Z,14.22
2017-05-28T00:31:43.843Z,14.22
2017-05-28T00:31:48.160Z,14.22
2017-05-28T00:31:52.587Z,14.21
2017-05-28T00:31:57.009Z,14.22
2017-05-28T00:32:01.086Z,14.21
2017-05-28T00:32:05.279Z,14.21
2017-05-28T00:32:09.600Z,14.2
2017-05-28T00:32:13.917Z,14.21
2017-05-28T00:32:17.878Z,14.2
2017-05-28T00:32:22.188Z,14.2
2017-05-28T00:32:26.616Z,14.2
2017-05-28T00:32:31.041Z,14.21
2017-05-28T00:32:35.358Z,14.2
2017-05-28T00:32:39.821Z,14.2
2017-05-28T00:32:44.138Z,14.2
2017-05-28T00:32:48.566Z,14.2
2017-05-28T00:32:53.004Z,14.2
2017-05-28T00:32:57.197Z,14.2
2017-05-28T00:33:01.727Z,14.2
2017-05-28T00:33:06.042Z,14.2
2017-05-28T00:33:10.393Z,14.2
2017-05-28T00:33:14.725Z,14.2
2017-05-28T00:33:19.153Z,14.19
2017-05-28T00:33:23.462Z,14.2
2017-05-28T00:33:27.784Z,14.2
2017-05-28T00:33:32.209Z,14.2
2017-05-28T00:33:36.530Z,14.2
2017-05-28T00:33:40.899Z,14.2
2017-05-28T00:33:45.102Z,14.21
2017-05-28T00:33:49.541Z,14.2
2017-05-28T00:33:53.970Z,14.2
2017-05-28T00:33:58.291Z,14.2
2017-05-28T00:34:02.370Z,14.21
2017-05-28T00:34:06.746Z,14.21
2017-05-28T00:34:10.957Z,14.21
2017-05-28T00:34:15.147Z,14.21
2017-05-28T00:34:19.225Z,14.21
2017-05-28T00:34:23.420Z,14.22
2017-05-28T00:34:27.847Z,14.21
2017-05-28T00:34:32.279Z,14.21
2017-05-28T00:34:36.595Z,14.21
2017-05-28T00:34:40.917Z,14.22
2017-05-28T00:34:45.113Z,14.22
2017-05-28T00:34:49.543Z,14.21
2017-05-28T00:34:53.974Z,14.22
2017-05-28T00:34:58.173Z,14.23
2017-05-28T00:35:02.528Z,14.23
2017-05-28T00:35:06.962Z,14.23
2017-05-28T00:35:11.402Z,14.23
2017-05-28T00:35:15.713Z,14.23
2017-05-28T00:35:20.018Z,14.23
2017-05-28T00:35:24.324Z,14.23
2017-05-28T00:35:28.754Z,14.23
2017-05-28T00:35:33.185Z,14.23
2017-05-28T00:35:37.504Z,14.23
2017-05-28T00:35:41.811Z,14.23
2017-05-28T00:35:46.118Z,14.23
2017-05-28T00:35:50.308Z,14.23
2017-05-28T00:35:54.731Z,14.23
2017-05-28T00:35:58.807Z,14.23
2017-05-28T00:36:03.105Z,14.24
2017-05-28T00:36:07.422Z,14.24
2017-05-28T00:36:11.851Z,14.24
2017-05-28T00:36:16.160Z,14.23
2017-05-28T00:36:20.584Z,14.24
2017-05-28T00:36:24.895Z,14.24
2017-05-28T00:36:29.333Z,14.23
2017-05-28T00:36:33.769Z,14.23
2017-05-28T00:36:38.081Z,14.23
2017-05-28T00:36:42.273Z,14.23
2017-05-28T00:36:46.583Z,14.24
2017-05-28T00:36:51.004Z,14.23
2017-05-28T00:36:55.311Z,14.24
2017-05-28T00:36:59.623Z,14.23
2017-05-28T00:37:04.188Z,14.22
2017-05-28T00:37:08.625Z,14.23
2017-05-28T00:37:13.052Z,14.23
2017-05-28T00:37:17.240Z,14.23
2017-05-28T00:37:21.549Z,14.23
2017-05-28T00:37:25.631Z,14.22
2017-05-28T00:37:29.946Z,14.23
2017-05-28T00:37:34.385Z,14.22
2017-05-28T00:37:38.813Z,14.22
2017-05-28T00:37:43.010Z,14.21
2017-05-28T00:37:47.323Z,14.21
2017-05-28T00:37:51.750Z,14.21
2017-05-28T00:37:56.181Z,14.21
2017-05-28T00:38:00.258Z,14.21
2017-05-28T00:38:04.796Z,14.2
2017-05-28T00:38:08.993Z,14.2
2017-05-28T00:38:13.304Z,14.2
2017-05-28T00:38:17.610Z,14.2
2017-05-28T00:38:21.921Z,14.2
2017-05-28T00:38:26.242Z,14.2
2017-05-28T00:38:30.553Z,14.19
2017-05-28T00:38:34.987Z,14.2
2017-05-28T00:38:39.409Z,14.19
2017-05-28T00:38:43.246Z,14.19
2017-05-28T00:38:47.564Z,14.19
2017-05-28T00:38:51.989Z,14.18
2017-05-28T00:38:56.189Z,14.18
2017-05-28T00:39:00.502Z,14.17
2017-05-28T00:39:04.942Z,14.17
2017-05-28T00:39:09.371Z,14.16
2017-05-28T00:39:13.678Z,14.17
2017-05-28T00:39:17.864Z,14.15
2017-05-28T00:39:22.051Z,14.16
2017-05-28T00:39:26.483Z,14.16
2017-05-28T00:39:30.918Z,14.15
2017-05-28T00:39:35.357Z,14.15
2017-05-28T00:39:39.670Z,14.14
2017-05-28T00:39:43.985Z,14.14
2017-05-28T00:39:48.058Z,14.13
2017-05-28T00:39:52.485Z,14.12
2017-05-28T00:39:56.909Z,14.12
2017-05-28T00:40:01.235Z,14.12
2017-05-28T00:40:05.446Z,14.12
2017-05-28T00:40:09.640Z,14.1
2017-05-28T00:40:13.959Z,14.1
2017-05-28T00:40:18.153Z,14.1
2017-05-28T00:40:22.226Z,14.1
2017-05-28T00:40:26.556Z,14.09
2017-05-28T00:40:30.991Z,14.08
2017-05-28T00:40:35.302Z,14.07
2017-05-28T00:40:39.735Z,14.07
2017-05-28T00:40:44.053Z,14.07
2017-05-28T00:40:48.246Z,14.06
2017-05-28T00:40:52.562Z,14.06
2017-05-28T00:40:56.913Z,14.05
2017-05-28T00:41:01.340Z,14.04
2017-05-28T00:41:05.800Z,14.03
2017-05-28T00:41:10.227Z,14.03
2017-05-28T00:41:14.655Z,14.03
2017-05-28T00:41:19.080Z,14.02
2017-05-28T00:41:23.403Z,14.01
2017-05-28T00:41:27.784Z,14.02
2017-05-28T00:41:32.091Z,14.01
2017-05-28T00:41:36.522Z,14
2017-05-28T00:41:40.831Z,13.99
2017-05-28T00:41:45.021Z,13.99
2017-05-28T00:41:49.331Z,13.98
2017-05-28T00:41:53.755Z,13.97
2017-05-28T00:41:57.838Z,13.97
2017-05-28T00:42:02.428Z,13.97
2017-05-28T00:42:06.617Z,13.96
2017-05-28T00:42:10.942Z,13.95
2017-05-28T00:42:15.375Z,13.95
2017-05-28T00:42:19.809Z,13.94
2017-05-28T00:42:24.251Z,13.93
2017-05-28T00:42:28.575Z,13.93
2017-05-28T00:42:33.007Z,13.92
2017-05-28T00:42:37.326Z,13.92
2017-05-28T00:42:41.521Z,13.91
2017-05-28T00:42:45.964Z,13.91
2017-05-28T00:42:50.051Z,13.89
2017-05-28T00:42:54.379Z,13.9
2017-05-28T00:42:58.577Z,13.89
2017-05-28T00:43:03.314Z,13.88
2017-05-28T00:43:07.626Z,13.87
2017-05-28T00:43:11.824Z,13.87
2017-05-28T00:43:16.020Z,13.86
2017-05-28T00:43:20.333Z,13.85
2017-05-28T00:43:24.702Z,13.85
2017-05-28T00:43:29.154Z,13.86
2017-05-28T00:43:33.461Z,13.84
2017-05-28T00:43:37.894Z,13.85
2017-05-28T00:43:41.964Z,13.84
2017-05-28T00:43:46.398Z,13.82
2017-05-28T00:43:50.608Z,13.83
2017-05-28T00:43:54.938Z,13.81
2017-05-28T00:43:59.374Z,13.8
2017-05-28T00:44:03.754Z,13.8
2017-05-28T00:44:07.946Z,13.8
2017-05-28T00:44:12.256Z,13.78
2017-05-28T00:44:16.453Z,13.78
2017-05-28T00:44:20.767Z,13.77
2017-05-28T00:44:25.094Z,13.76
2017-05-28T00:44:29.531Z,13.76
2017-05-28T00:44:33.962Z,13.75
2017-05-28T00:44:38.388Z,13.74
2017-05-28T00:44:42.588Z,13.75
2017-05-28T00:44:47.019Z,13.74
2017-05-28T00:44:51.100Z,13.72
2017-05-28T00:44:55.418Z,13.72
2017-05-28T00:44:59.736Z,13.72
2017-05-28T00:45:04.042Z,13.7
2017-05-28T00:45:08.361Z,13.7
2017-05-28T00:45:12.552Z,13.7
2017-05-28T00:45:16.860Z,13.69
2017-05-28T00:45:21.168Z,13.68
2017-05-28T00:45:25.494Z,13.68
2017-05-28T00:45:29.932Z,13.67
2017-05-28T00:45:34.246Z,13.67
2017-05-28T00:45:38.670Z,13.66
2017-05-28T00:45:42.868Z,13.66
2017-05-28T00:45:47.299Z,13.65
2017-05-28T00:45:51.727Z,13.65
2017-05-28T00:45:55.929Z,13.64
2017-05-28T00:46:00.352Z,13.63
2017-05-28T00:46:04.784Z,13.62
2017-05-28T00:46:09.208Z,13.62
2017-05-28T00:46:13.518Z,13.61
2017-05-28T00:46:17.721Z,13.61
2017-05-28T00:46:22.033Z,13.6
2017-05-28T00:46:26.349Z,13.61
2017-05-28T00:46:30.774Z,13.59
2017-05-28T00:46:34.965Z,13.59
2017-05-28T00:46:39.270Z,13.59
2017-05-28T00:46:43.579Z,13.58
2017-05-28T00:46:47.894Z,13.58
2017-05-28T00:46:52.215Z,13.57
2017-05-28T00:46:56.538Z,13.57
2017-05-28T00:47:00.851Z,13.56
2017-05-28T00:47:05.163Z,13.56
2017-05-28T00:47:09.589Z,13.55
2017-05-28T00:47:14.015Z,13.54
2017-05-28T00:47:18.456Z,13.54
2017-05-28T00:47:22.894Z,13.54
2017-05-28T00:47:27.199Z,13.52
2017-05-28T00:47:31.629Z,13.53
2017-05-28T00:47:36.054Z,13.52
2017-05-28T00:47:40.368Z,13.51
2017-05-28T00:47:44.676Z,13.51
2017-05-28T00:47:48.994Z,13.51
2017-05-28T00:47:53.270Z,13.5
2017-05-28T00:47:57.596Z,13.5
2017-05-28T00:48:02.020Z,13.5
2017-05-28T00:48:06.335Z,13.5
2017-05-28T00:48:10.525Z,13.49
2017-05-28T00:48:14.837Z,13.48
2017-05-28T00:48:19.214Z,13.47
2017-05-28T00:48:23.422Z,13.48
2017-05-28T00:48:27.737Z,13.47
2017-05-28T00:48:32.165Z,13.46
2017-05-28T00:48:36.364Z,13.47
2017-05-28T00:48:40.678Z,13.46
2017-05-28T00:48:44.990Z,13.45
2017-05-28T00:48:49.071Z,13.45
2017-05-28T00:48:53.389Z,13.44
2017-05-28T00:48:57.583Z,13.43
2017-05-28T00:49:02.095Z,13.42
2017-05-28T00:49:06.522Z,13.43
2017-05-28T00:49:10.838Z,13.42
2017-05-28T00:49:15.146Z,13.42
2017-05-28T00:49:19.464Z,13.42
2017-05-28T00:49:23.957Z,13.41
2017-05-28T00:49:28.398Z,13.41
2017-05-28T00:49:32.831Z,13.4
2017-05-28T00:49:37.259Z,13.4
2017-05-28T00:49:41.330Z,13.39
2017-05-28T00:49:45.643Z,13.39
2017-05-28T00:49:49.841Z,13.39
2017-05-28T00:49:54.163Z,13.38
2017-05-28T00:49:58.247Z,13.38
2017-05-28T00:50:02.654Z,13.37
2017-05-28T00:50:06.847Z,13.37
2017-05-28T00:50:11.279Z,13.37
2017-05-28T00:50:15.471Z,13.36
2017-05-28T00:50:19.791Z,13.36
2017-05-28T00:50:24.224Z,13.35
2017-05-28T00:50:28.656Z,13.34
2017-05-28T00:50:33.084Z,13.34
2017-05-28T00:50:37.398Z,13.33
2017-05-28T00:50:41.711Z,13.34
2017-05-28T00:50:46.139Z,13.33
2017-05-28T00:50:50.628Z,13.33
2017-05-28T00:50:54.953Z,13.32
2017-05-28T00:50:59.143Z,13.32
2017-05-28T00:51:03.486Z,13.31
2017-05-28T00:51:07.910Z,13.31
2017-05-28T00:51:12.333Z,13.3
2017-05-28T00:51:16.531Z,13.3
2017-05-28T00:51:20.877Z,13.29
2017-05-28T00:51:25.075Z,13.3
2017-05-28T00:51:29.378Z,13.29
2017-05-28T00:51:33.686Z,13.28
2017-05-28T00:51:37.994Z,13.28
2017-05-28T00:51:42.182Z,13.28
2017-05-28T00:51:46.495Z,13.28
2017-05-28T00:51:50.926Z,13.27
2017-05-28T00:51:55.174Z,13.26
2017-05-28T00:51:59.378Z,13.26
2017-05-28T00:52:04.012Z,13.26
2017-05-28T00:52:08.201Z,13.25
2017-05-28T00:52:12.625Z,13.26
2017-05-28T00:52:16.820Z,13.25
2017-05-28T00:52:21.251Z,13.24
2017-05-28T00:52:25.641Z,13.24
2017-05-28T00:52:30.084Z,13.24
2017-05-28T00:52:34.516Z,13.23
2017-05-28T00:52:38.944Z,13.22
2017-05-28T00:52:43.024Z,13.22
2017-05-28T00:52:47.215Z,13.22
2017-05-28T00:52:51.637Z,13.21
2017-05-28T00:52:56.007Z,13.21
2017-05-28T00:53:00.208Z,13.2
2017-05-28T00:53:04.517Z,13.19
2017-05-28T00:53:08.948Z,13.19
2017-05-28T00:53:13.263Z,13.18
2017-05-28T00:53:17.569Z,13.18
2017-05-28T00:53:21.887Z,13.17
2017-05-28T00:53:26.210Z,13.17
2017-05-28T00:53:30.651Z,13.17
2017-05-28T00:53:35.087Z,13.16
2017-05-28T00:53:39.402Z,13.14
2017-05-28T00:53:43.595Z,13.15
2017-05-28T00:53:47.789Z,13.15
2017-05-28T00:53:51.985Z,13.13
2017-05-28T00:53:56.430Z,13.12
2017-05-28T00:54:00.762Z,13.12
2017-05-28T00:54:05.323Z,13.12
2017-05-28T00:54:09.759Z,13.11
2017-05-28T00:54:14.066Z,13.1
2017-05-28T00:54:18.257Z,13.11
2017-05-28T00:54:22.450Z,13.1
2017-05-28T00:54:26.645Z,13.1
2017-05-28T00:54:31.082Z,13.09
2017-05-28T00:54:35.523Z,13.09
2017-05-28T00:54:39.596Z,13.09
2017-05-28T00:54:43.794Z,13.09
2017-05-28T00:54:48.105Z,13.08
2017-05-28T00:54:52.542Z,13.07
2017-05-28T00:54:56.980Z,13.07
2017-05-28T00:55:01.177Z,13.07
2017-05-28T00:55:05.301Z,13.06
2017-05-28T00:55:09.736Z,13.05
2017-05-28T00:55:14.045Z,13.05
2017-05-28T00:55:18.238Z,13.05
2017-05-28T00:55:22.312Z,13.04
2017-05-28T00:55:26.632Z,13.05
2017-05-28T00:55:31.059Z,13.03
2017-05-28T00:55:35.379Z,13.03
2017-05-28T00:55:39.451Z,13.03
2017-05-28T00:55:43.642Z,13.03
2017-05-28T00:55:47.958Z,13.03
2017-05-28T00:55:52.389Z,13.02
2017-05-28T00:55:56.709Z,13.02
2017-05-28T00:56:00.967Z,13.01